createdAt,value
2019-01-18T00:01:56.873Z,22.60
2019-01-18T00:04:27.381Z,22.50
2019-01-18T00:07:01.780Z,22.20
2019-01-18T00:09:35.169Z,22.10
2019-01-18T00:12:05.988Z,22.00
2019-01-18T00:14:36.371Z,21.90
2019-01-18T00:17:07.307Z,22.00
2019-01-18T00:19:39.155Z,22.30
2019-01-18T00:22:11.220Z,22.40
2019-01-18T00:24:41.986Z,22.70
2019-01-18T00:27:12.353Z,22.80
2019-01-18T00:29:42.761Z,22.70
2019-01-18T00:32:13.095Z,22.70
2019-01-18T00:34:46.660Z,22.80
2019-01-18T00:37:17.049Z,22.90
2019-01-18T00:39:47.487Z,22.90
2019-01-18T00:42:18.210Z,22.90
2019-01-18T00:44:48.620Z,23.00
2019-01-18T00:47:19.328Z,22.90
2019-01-18T00:49:51.092Z,22.80
2019-01-18T00:52:22.995Z,23.00
2019-01-18T00:54:53.519Z,22.90
2019-01-18T00:57:23.990Z,23.00
2019-01-18T00:59:54.673Z,23.00
2019-01-18T01:02:25.644Z,23.00
2019-01-18T01:04:56.233Z,22.90
2019-01-18T01:07:26.822Z,23.00
2019-01-18T01:09:57.465Z,23.00
2019-01-18T01:12:28.074Z,22.90
2019-01-18T01:14:58.441Z,22.80
2019-01-18T01:17:28.877Z,22.50
2019-01-18T01:20:00.386Z,22.70
2019-01-18T01:22:30.932Z,22.70
2019-01-18T01:25:06.120Z,22.10
2019-01-18T01:27:39.263Z,22.20
2019-01-18T01:30:19.541Z,22.10
2019-01-18T01:32:55.350Z,22.40
2019-01-18T01:35:26.407Z,22.10
2019-01-18T01:38:03.085Z,22.10
2019-01-18T01:40:30.503Z,22.10
2019-01-18T01:43:08.151Z,22.10
2019-01-18T01:45:42.195Z,22.20
2019-01-18T01:48:13.224Z,22.10
2019-01-18T01:50:45.801Z,22.10
2019-01-18T01:53:26.343Z,22.30
2019-01-18T01:55:59.427Z,22.30
2019-01-18T01:58:29.482Z,22.10
2019-01-18T02:01:00.214Z,22.10
2019-01-18T02:03:34.327Z,22.00
2019-01-18T02:06:06.301Z,21.80
2019-01-18T02:08:36.877Z,22.00
2019-01-18T02:11:08.946Z,22.00
2019-01-18T02:13:39.778Z,21.90
2019-01-18T02:16:11.952Z,21.40
2019-01-18T02:18:44.737Z,21.40
2019-01-18T02:21:17.145Z,21.30
2019-01-18T02:23:47.775Z,21.30
2019-01-18T02:26:18.153Z,21.20
2019-01-18T02:28:48.533Z,21.40
2019-01-18T02:31:19.050Z,21.60
2019-01-18T02:33:49.391Z,21.60
2019-01-18T02:36:20.388Z,21.70
2019-01-18T02:38:50.848Z,21.40
2019-01-18T02:41:21.968Z,21.00
2019-01-18T02:43:52.397Z,21.20
2019-01-18T02:46:23.072Z,21.30
2019-01-18T02:48:54.045Z,21.30
2019-01-18T02:51:27.901Z,21.30
2019-01-18T02:53:58.623Z,21.30
2019-01-18T02:56:29.532Z,21.40
2019-01-18T02:59:00.154Z,21.30
2019-01-18T03:01:33.372Z,21.40
2019-01-18T03:04:05.723Z,21.20
2019-01-18T03:06:36.406Z,21.30
2019-01-18T03:09:09.561Z,21.30
2019-01-18T03:11:40.100Z,21.40
2019-01-18T03:14:10.521Z,21.30
2019-01-18T03:16:40.939Z,21.30
2019-01-18T03:19:11.325Z,21.40
2019-01-18T03:21:41.725Z,21.50
2019-01-18T03:24:12.106Z,21.40
2019-01-18T03:26:42.705Z,21.20
2019-01-18T03:29:14.000Z,21.30
2019-01-18T03:31:44.973Z,21.20
2019-01-18T03:34:15.882Z,21.20
2019-01-18T03:36:49.995Z,21.30
2019-01-18T03:39:20.527Z,21.40
2019-01-18T03:41:51.090Z,21.30
2019-01-18T03:44:22.235Z,21.20
2019-01-18T03:46:52.648Z,21.10
2019-01-18T03:49:23.329Z,21.20
2019-01-18T03:51:53.804Z,21.20
2019-01-18T03:54:24.134Z,21.00
2019-01-18T03:56:54.623Z,21.00
2019-01-18T03:59:24.924Z,21.10
2019-01-18T04:01:56.581Z,21.10
2019-01-18T04:04:27.795Z,20.40
2019-01-18T04:06:58.396Z,20.40
2019-01-18T04:09:28.845Z,20.40
2019-01-18T04:11:59.227Z,20.40
2019-01-18T04:14:30.504Z,20.40
2019-01-18T04:17:00.910Z,20.50
2019-01-18T04:19:31.256Z,20.30
2019-01-18T04:22:01.721Z,20.30
2019-01-18T04:24:32.220Z,20.50
2019-01-18T04:27:02.647Z,20.00
2019-01-18T04:29:32.938Z,19.60
2019-01-18T04:32:03.387Z,19.60
2019-01-18T04:34:33.899Z,20.00
2019-01-18T04:37:04.290Z,20.10
2019-01-18T04:39:34.583Z,20.20
2019-01-18T04:42:05.032Z,20.30
2019-01-18T04:44:35.354Z,20.40
2019-01-18T04:47:08.435Z,20.30
2019-01-18T04:49:39.090Z,20.30
2019-01-18T04:52:09.587Z,20.30
2019-01-18T04:54:39.903Z,19.90
2019-01-18T04:57:10.294Z,19.60
2019-01-18T04:59:40.839Z,19.20
2019-01-18T05:02:11.192Z,18.90
2019-01-18T05:04:42.617Z,19.00
2019-01-18T05:07:33.945Z,19.30
2019-01-18T05:10:05.907Z,19.60
2019-01-18T05:12:36.637Z,19.50
2019-01-18T05:15:10.492Z,19.30
2019-01-18T05:17:41.631Z,19.00
2019-01-18T05:20:13.770Z,19.10
2019-01-18T05:22:44.374Z,19.10
2019-01-18T05:25:15.794Z,19.20
2019-01-18T05:27:46.153Z,19.40
2019-01-18T05:30:25.356Z,19.60
2019-01-18T05:32:55.806Z,19.60
2019-01-18T05:35:28.046Z,19.50
2019-01-18T05:37:58.471Z,19.40
2019-01-18T05:40:28.785Z,19.40
2019-01-18T05:42:59.024Z,19.50
2019-01-18T05:45:29.376Z,19.60
2019-01-18T05:47:59.613Z,19.50
2019-01-18T05:50:31.572Z,19.60
2019-01-18T05:53:05.539Z,19.60
2019-01-18T05:55:36.508Z,19.50
2019-01-18T05:58:14.139Z,19.40
2019-01-18T06:00:45.915Z,19.10
2019-01-18T06:03:20.485Z,19.00
2019-01-18T06:05:51.173Z,18.80
2019-01-18T06:08:21.565Z,19.00
2019-01-18T06:10:51.853Z,19.30
2019-01-18T06:13:22.304Z,19.40
2019-01-18T06:15:52.585Z,19.40
2019-01-18T06:18:22.941Z,19.60
2019-01-18T06:20:53.281Z,19.40
2019-01-18T06:23:23.602Z,19.20
2019-01-18T06:25:54.547Z,19.40
2019-01-18T06:28:24.886Z,19.50
2019-01-18T06:31:01.515Z,19.40
2019-01-18T06:33:27.052Z,19.60
2019-01-18T06:35:58.870Z,19.10
2019-01-18T06:38:29.214Z,19.20
2019-01-18T06:41:00.953Z,19.40
2019-01-18T06:43:31.229Z,19.60
2019-01-18T06:46:01.559Z,19.70
2019-01-18T06:48:32.237Z,19.80
2019-01-18T06:51:02.923Z,19.70
2019-01-18T06:53:33.225Z,19.80
2019-01-18T06:56:03.423Z,19.70
2019-01-18T06:58:33.673Z,19.70
2019-01-18T07:01:08.500Z,19.30
2019-01-18T07:03:36.039Z,19.20
2019-01-18T07:06:06.779Z,19.10
2019-01-18T07:08:37.883Z,19.10
2019-01-18T07:11:08.398Z,19.10
2019-01-18T07:13:39.580Z,19.10
2019-01-18T07:16:10.095Z,19.20
2019-01-18T07:18:40.672Z,19.40
2019-01-18T07:21:12.616Z,19.50
2019-01-18T07:23:57.079Z,19.40
2019-01-18T07:26:15.151Z,19.30
2019-01-18T07:28:46.241Z,19.50
2019-01-18T07:31:16.554Z,19.20
2019-01-18T07:33:46.821Z,19.30
2019-01-18T07:36:17.235Z,19.30
2019-01-18T07:38:47.586Z,19.30
2019-01-18T07:41:17.816Z,19.40
2019-01-18T07:43:48.160Z,19.30
2019-01-18T07:46:19.409Z,19.30
2019-01-18T07:48:49.889Z,19.20
2019-01-18T07:51:20.581Z,19.30
2019-01-18T07:53:50.868Z,19.30
2019-01-18T07:56:21.095Z,19.30
2019-01-18T07:58:51.393Z,19.20
2019-01-18T08:01:22.302Z,18.90
2019-01-18T08:03:53.034Z,18.50
2019-01-18T08:06:23.387Z,18.20
2019-01-18T08:08:53.728Z,18.00
2019-01-18T08:11:23.939Z,18.00
2019-01-18T08:13:54.183Z,18.00
2019-01-18T08:16:32.691Z,18.10
2019-01-18T08:19:33.374Z,18.10
2019-01-18T08:21:35.185Z,18.10
2019-01-18T08:24:05.631Z,18.10
2019-01-18T08:26:35.914Z,18.20
2019-01-18T08:29:06.296Z,18.30
2019-01-18T08:31:36.574Z,18.30
2019-01-18T08:34:06.890Z,18.30
2019-01-18T08:36:37.250Z,18.40
2019-01-18T08:39:08.699Z,18.40
2019-01-18T08:41:39.037Z,18.60
2019-01-18T08:44:09.505Z,18.80
2019-01-18T08:46:39.843Z,18.90
2019-01-18T08:49:10.121Z,18.80
2019-01-18T08:51:40.807Z,18.60
2019-01-18T08:54:11.042Z,18.80
2019-01-18T08:56:42.771Z,18.90
2019-01-18T08:59:13.161Z,18.80
2019-01-18T09:01:43.558Z,18.40
2019-01-18T09:04:13.933Z,18.30
2019-01-18T09:06:44.427Z,18.30
2019-01-18T09:09:14.902Z,18.50
2019-01-18T09:11:45.303Z,18.30
2019-01-18T09:14:19.382Z,18.50
2019-01-18T09:16:47.669Z,18.80
2019-01-18T09:19:18.094Z,18.30
2019-01-18T09:21:48.441Z,18.30
2019-01-18T09:24:18.821Z,18.50
2019-01-18T09:26:49.231Z,18.70
2019-01-18T09:29:19.620Z,18.90
2019-01-18T09:31:49.912Z,19.00
2019-01-18T09:34:20.354Z,19.20
2019-01-18T09:36:50.712Z,19.30
2019-01-18T09:39:21.055Z,19.40
2019-01-18T09:41:51.475Z,19.20
2019-01-18T09:44:22.606Z,18.90
2019-01-18T09:46:52.965Z,18.50
2019-01-18T09:49:23.496Z,18.40
2019-01-18T09:51:55.362Z,18.40
2019-01-18T09:54:25.945Z,18.60
2019-01-18T09:56:57.596Z,18.70
2019-01-18T09:59:28.006Z,18.70
2019-01-18T10:01:58.562Z,18.60
2019-01-18T10:04:28.935Z,18.70
2019-01-18T10:06:59.280Z,18.50
2019-01-18T10:09:29.809Z,18.70
2019-01-18T10:12:00.095Z,18.90
2019-01-18T10:14:31.224Z,18.60
2019-01-18T10:17:01.723Z,18.70
2019-01-18T10:19:32.329Z,18.90
2019-01-18T10:22:03.988Z,18.70
2019-01-18T10:24:34.353Z,18.50
2019-01-18T10:27:04.824Z,18.70
2019-01-18T10:29:35.268Z,18.90
2019-01-18T10:32:05.616Z,19.10
2019-01-18T10:34:35.988Z,19.10
2019-01-18T10:37:06.732Z,19.10
2019-01-18T10:39:37.108Z,19.20
2019-01-18T10:42:07.475Z,19.40
2019-01-18T10:44:37.800Z,19.40
2019-01-18T10:47:08.137Z,19.50
2019-01-18T10:49:38.561Z,19.60
2019-01-18T10:52:09.162Z,19.60
2019-01-18T10:54:38.538Z,19.60
2019-01-18T10:57:09.138Z,19.50
2019-01-18T10:59:39.540Z,19.60
2019-01-18T11:02:09.910Z,19.60
2019-01-18T11:04:40.416Z,19.70
2019-01-18T11:07:10.755Z,19.50
2019-01-18T11:09:41.175Z,19.20
2019-01-18T11:12:11.704Z,19.10
2019-01-18T11:14:42.103Z,18.80
2019-01-18T11:17:12.511Z,18.90
2019-01-18T11:19:42.944Z,19.00
2019-01-18T11:22:13.284Z,18.90
2019-01-18T11:24:43.611Z,18.90
2019-01-18T11:27:14.075Z,19.10
2019-01-18T11:29:45.373Z,19.00
2019-01-18T11:32:18.372Z,18.90
2019-01-18T11:34:54.194Z,18.90
2019-01-18T11:37:25.034Z,18.90
2019-01-18T11:39:55.526Z,18.70
2019-01-18T11:42:25.985Z,18.80
2019-01-18T11:44:56.415Z,18.80
2019-01-18T11:47:26.801Z,18.90
2019-01-18T11:49:57.182Z,18.90
2019-01-18T11:52:28.007Z,18.80
2019-01-18T11:54:58.335Z,18.90
2019-01-18T11:57:30.201Z,18.90
2019-01-18T12:00:01.876Z,18.90
2019-01-18T12:02:32.622Z,18.80
2019-01-18T12:05:02.996Z,18.70
2019-01-18T12:07:44.971Z,18.70
2019-01-18T12:10:20.267Z,18.80
2019-01-18T12:12:50.973Z,18.80
2019-01-18T12:15:21.462Z,18.70
2019-01-18T12:17:51.936Z,18.70
2019-01-18T12:20:33.634Z,18.60
2019-01-18T12:23:05.360Z,18.40
2019-01-18T12:25:35.890Z,18.20
2019-01-18T12:28:06.445Z,18.10
2019-01-18T12:30:37.114Z,18.00
2019-01-18T12:33:07.978Z,17.90
2019-01-18T12:35:38.399Z,17.80
2019-01-18T12:40:37.762Z,17.60
2019-01-18T12:43:08.277Z,17.50
2019-01-18T12:45:38.633Z,17.50
2019-01-18T12:48:09.309Z,17.50
2019-01-18T12:50:40.121Z,17.40
2019-01-18T12:53:10.984Z,17.40
2019-01-18T12:55:41.704Z,17.40
2019-01-18T12:58:12.180Z,17.50
2019-01-18T13:00:42.605Z,17.50
2019-01-18T13:03:13.117Z,17.60
2019-01-18T13:05:44.337Z,17.70
2019-01-18T13:08:14.757Z,17.70
2019-01-18T13:10:45.338Z,17.90
2019-01-18T13:13:15.863Z,18.00
2019-01-18T13:16:08.265Z,18.10
2019-01-18T13:18:38.633Z,18.10
2019-01-18T13:21:09.104Z,18.10
2019-01-18T13:23:39.710Z,18.10
2019-01-18T13:26:10.152Z,18.10
2019-01-18T13:28:40.546Z,18.50
2019-01-18T13:31:11.184Z,18.80
2019-01-18T13:33:41.732Z,18.90
2019-01-18T13:36:13.709Z,18.90
2019-01-18T13:38:44.208Z,18.90
2019-01-18T13:41:14.788Z,19.00
2019-01-18T13:43:45.247Z,19.10
2019-01-18T13:46:18.363Z,19.50
2019-01-18T13:48:48.960Z,19.80
2019-01-18T13:51:19.349Z,19.90
2019-01-18T13:53:50.147Z,19.80
2019-01-18T13:56:20.756Z,19.80
2019-01-18T13:58:56.210Z,20.10
2019-01-18T14:01:26.619Z,20.50
2019-01-18T14:03:57.820Z,20.70
2019-01-18T14:06:28.346Z,20.70
2019-01-18T14:08:58.898Z,20.60
2019-01-18T14:11:29.511Z,20.60
2019-01-18T14:14:04.148Z,20.60
2019-01-18T14:16:37.970Z,20.70
2019-01-18T14:19:08.627Z,20.70
2019-01-18T14:21:38.997Z,20.60
2019-01-18T14:24:09.715Z,20.70
2019-01-18T14:26:40.233Z,20.90
2019-01-18T14:29:10.866Z,21.30
2019-01-18T14:31:41.373Z,21.40
2019-01-18T14:34:11.824Z,21.40
2019-01-18T14:36:42.617Z,21.50
2019-01-18T14:39:13.071Z,21.70
2019-01-18T14:41:43.851Z,22.00
2019-01-18T14:44:14.307Z,22.10
2019-01-18T14:46:44.734Z,22.30
2019-01-18T14:49:16.323Z,22.40
2019-01-18T14:51:46.963Z,22.50
2019-01-18T14:54:20.697Z,22.60
2019-01-18T14:56:51.201Z,22.50
2019-01-18T14:59:21.575Z,22.40
2019-01-18T15:01:52.409Z,22.20
2019-01-18T15:04:22.884Z,22.30
2019-01-18T15:06:53.288Z,22.40
2019-01-18T15:09:25.235Z,22.80
2019-01-18T15:11:55.929Z,23.20
2019-01-18T15:14:28.056Z,23.50
2019-01-18T15:16:58.847Z,23.60
2019-01-18T15:19:29.526Z,23.80
2019-01-18T15:22:00.345Z,23.80
2019-01-18T15:24:31.212Z,23.80
2019-01-18T15:27:01.743Z,24.50
2019-01-18T15:29:32.495Z,24.80
2019-01-18T15:32:03.064Z,25.00
2019-01-18T15:34:35.483Z,25.20
2019-01-18T15:37:06.228Z,25.00
2019-01-18T15:39:39.904Z,25.00
2019-01-18T15:42:29.355Z,24.90
2019-01-18T15:45:06.663Z,24.90
2019-01-18T15:47:37.423Z,24.80
2019-01-18T15:50:25.431Z,24.60
2019-01-18T15:52:58.525Z,24.50
2019-01-18T15:55:31.563Z,24.40
2019-01-18T15:58:09.605Z,24.50
2019-01-18T16:00:43.861Z,24.80
2019-01-18T16:03:16.106Z,24.60
2019-01-18T16:05:49.753Z,24.80
2019-01-18T16:08:20.757Z,25.30
2019-01-18T16:10:54.028Z,25.40
2019-01-18T16:13:24.883Z,25.00
2019-01-18T16:16:01.375Z,25.40
2019-01-18T16:18:31.962Z,25.40
2019-01-18T16:21:02.681Z,25.80
2019-01-18T16:23:43.134Z,25.40
2019-01-18T16:26:12.970Z,25.90
2019-01-18T16:28:53.458Z,26.30
2019-01-18T16:31:39.757Z,26.70
2019-01-18T16:37:31.325Z,27.30
2019-01-18T16:40:03.844Z,27.10
2019-01-18T16:42:42.214Z,26.50
2019-01-18T16:45:14.291Z,27.40
2019-01-18T16:47:49.238Z,28.20
2019-01-18T16:50:19.782Z,28.70
2019-01-18T16:52:50.753Z,29.00
2019-01-18T16:55:32.233Z,29.20
2019-01-18T16:58:08.463Z,29.70
2019-01-18T17:00:44.647Z,29.70
2019-01-18T17:03:15.328Z,29.90
2019-01-18T17:05:56.219Z,29.90
2019-01-18T17:08:29.295Z,29.30
2019-01-18T17:10:59.861Z,29.90
2019-01-18T17:13:33.051Z,30.00
2019-01-18T17:16:10.522Z,29.80
2019-01-18T17:18:41.301Z,30.00
2019-01-18T17:21:20.817Z,30.00
2019-01-18T17:27:10.287Z,29.90
2019-01-18T17:30:28.729Z,29.40
2019-01-18T17:32:24.313Z,30.20
2019-01-18T17:35:01.123Z,30.40
2019-01-18T17:37:43.632Z,30.60
2019-01-18T17:40:23.878Z,30.80
2019-01-18T17:43:04.808Z,30.70
2019-01-18T17:45:47.559Z,31.00
2019-01-18T17:48:31.861Z,31.20
2019-01-18T17:51:32.954Z,31.30
2019-01-18T17:54:12.405Z,29.70
2019-01-18T17:57:15.799Z,29.80
2019-01-18T18:03:29.500Z,31.00
2019-01-18T18:06:15.276Z,31.40
2019-01-18T18:08:59.532Z,31.50
2019-01-18T18:11:53.842Z,31.10
2019-01-18T18:14:42.575Z,31.40
2019-01-18T18:17:25.400Z,30.30
2019-01-18T18:20:16.412Z,29.90
2019-01-18T18:23:13.816Z,30.70
2019-01-18T18:26:05.985Z,30.90
2019-01-18T18:28:55.672Z,31.10
2019-01-18T18:31:43.419Z,30.80
2019-01-18T18:34:16.460Z,31.30
2019-01-18T18:37:27.249Z,29.60
2019-01-18T18:40:13.946Z,30.10
2019-01-18T18:42:52.885Z,31.10
2019-01-18T18:45:32.049Z,31.70
2019-01-18T18:48:08.031Z,31.70
2019-01-18T18:51:06.656Z,31.90
2019-01-18T18:53:45.559Z,31.80
2019-01-18T18:56:41.140Z,32.10
2019-01-18T18:59:30.544Z,32.30
2019-01-18T19:02:03.962Z,31.20
2019-01-18T19:04:40.103Z,30.60
2019-01-18T19:07:13.198Z,30.90
2019-01-18T19:09:55.234Z,31.00
2019-01-18T19:12:50.203Z,31.40
2019-01-18T19:15:26.213Z,30.90
2019-01-18T19:18:24.977Z,30.70
2019-01-18T19:21:17.895Z,31.30
2019-01-18T19:23:50.969Z,31.40
2019-01-18T19:26:38.784Z,31.70
2019-01-18T19:29:20.979Z,32.00
2019-01-18T19:32:02.984Z,31.50
2019-01-18T19:34:48.851Z,31.90
2019-01-18T19:37:41.141Z,32.20
2019-01-18T19:40:17.208Z,31.60
2019-01-18T19:43:08.308Z,31.90
2019-01-18T19:45:50.157Z,32.00
2019-01-18T19:48:29.164Z,32.10
2019-01-18T19:51:11.452Z,32.10
2019-01-18T19:53:47.577Z,31.60
2019-01-18T19:56:38.856Z,31.30
2019-01-18T19:59:24.051Z,30.70
2019-01-18T20:02:05.778Z,30.20
2019-01-18T20:04:49.377Z,30.10
2019-01-18T20:07:38.880Z,30.10
2019-01-18T20:10:30.008Z,30.30
2019-01-18T20:13:27.179Z,29.60
2019-01-18T20:16:22.580Z,29.30
2019-01-18T20:19:21.817Z,28.70
2019-01-18T20:22:30.044Z,29.00
2019-01-18T20:25:12.342Z,29.30
2019-01-18T20:28:12.738Z,28.90
2019-01-18T20:31:03.775Z,28.90
2019-01-18T20:33:42.662Z,28.70
2019-01-18T20:36:36.886Z,29.40
2019-01-18T20:39:18.941Z,29.80
2019-01-18T20:42:20.896Z,30.20
2019-01-18T20:45:16.320Z,30.30
2019-01-18T20:48:01.365Z,29.90
2019-01-18T20:50:37.099Z,30.20
2019-01-18T20:53:20.103Z,30.50
2019-01-18T20:55:58.675Z,30.70
2019-01-18T20:58:31.758Z,30.40
2019-01-18T21:01:19.821Z,30.10
2019-01-18T21:04:07.991Z,30.50
2019-01-18T21:06:43.749Z,29.90
2019-01-18T21:09:25.816Z,29.40
2019-01-18T21:12:01.812Z,29.90
2019-01-18T21:14:59.147Z,30.30
2019-01-18T21:17:50.359Z,29.90
2019-01-18T21:20:35.175Z,29.40
2019-01-18T21:23:14.104Z,29.60
2019-01-18T21:26:11.133Z,29.40
2019-01-18T21:29:12.862Z,29.00
2019-01-18T21:32:05.355Z,29.40
2019-01-18T21:34:53.428Z,28.90
2019-01-18T21:37:41.518Z,28.80
2019-01-18T21:40:23.836Z,28.70
2019-01-18T21:43:00.537Z,28.60
2019-01-18T21:46:02.023Z,29.00
2019-01-18T21:48:38.164Z,28.60
2019-01-18T21:51:32.458Z,27.90
2019-01-18T21:54:25.146Z,27.80
2019-01-18T21:57:09.460Z,28.20
2019-01-18T21:59:47.265Z,28.20
2019-01-18T22:02:35.537Z,27.90
2019-01-18T22:05:11.103Z,27.60
2019-01-18T22:07:50.303Z,27.50
2019-01-18T22:10:29.727Z,27.00
2019-01-18T22:13:13.402Z,27.40
2019-01-18T22:16:03.117Z,27.60
2019-01-18T22:18:49.481Z,27.30
2019-01-18T22:21:34.432Z,26.90
2019-01-18T22:24:35.890Z,26.70
2019-01-18T22:27:08.782Z,26.60
2019-01-18T22:29:59.985Z,26.60
2019-01-18T22:32:45.125Z,26.70
2019-01-18T22:35:58.689Z,27.10
2019-01-18T22:38:22.039Z,27.10
2019-01-18T22:41:10.251Z,26.70
2019-01-18T22:44:04.945Z,26.20
2019-01-18T22:46:56.415Z,26.20
2019-01-18T22:49:41.359Z,25.50
2019-01-18T22:52:17.433Z,25.40
2019-01-18T22:55:06.503Z,25.50
2019-01-18T22:57:35.285Z,25.10
2019-01-18T23:00:51.769Z,25.10
2019-01-18T23:03:46.566Z,24.60
2019-01-18T23:06:41.214Z,24.40
2019-01-18T23:09:33.649Z,24.10
2019-01-18T23:12:29.024Z,24.10
2019-01-18T23:15:02.040Z,24.20
2019-01-18T23:18:04.548Z,24.30
2019-01-18T23:20:52.582Z,24.30
2019-01-18T23:23:29.237Z,24.20
2019-01-18T23:26:12.794Z,24.10
2019-01-18T23:28:59.009Z,24.10
2019-01-18T23:31:32.101Z,23.70
2019-01-18T23:34:14.565Z,23.80
2019-01-18T23:36:56.269Z,23.70
2019-01-18T23:39:57.973Z,23.70
2019-01-18T23:42:34.051Z,23.60
2019-01-18T23:45:18.834Z,23.20
2019-01-18T23:48:08.333Z,23.00
2019-01-18T23:50:46.154Z,22.20
2019-01-18T23:53:44.154Z,22.20
2019-01-18T23:56:41.806Z,22.10
2019-01-18T23:59:21.935Z,21.90
